sensor_id;sensor_type;location;lat;lon;timestamp;pressure;altitude;pressure_sealevel;temperature;humidity
8890;BME280;4481;43.406;24.454;2022-07-23T00:00:56;75780.63;;;-144.09;74.46
8890;BME280;4481;43.406;24.454;2022-07-23T00:03:22;75786.88;;;-144.09;74.41
8890;BME280;4481;43.406;24.454;2022-07-23T00:05:48;75797.34;;;-144.09;74.69
8890;BME280;4481;43.406;24.454;2022-07-23T00:08:15;75809.88;;;-144.09;75.09
8890;BME280;4481;43.406;24.454;2022-07-23T00:10:41;75809.88;;;-144.09;74.99
8890;BME280;4481;43.406;24.454;2022-07-23T00:13:07;75820.31;;;-144.09;74.97
8890;BME280;4481;43.406;24.454;2022-07-23T00:15:34;75811.97;;;-144.09;74.94
8890;BME280;4481;43.406;24.454;2022-07-23T00:18:00;75799.41;;;-144.09;74.65
8890;BME280;4481;43.406;24.454;2022-07-23T00:20:27;75799.41;;;-144.09;74.39
8890;BME280;4481;43.406;24.454;2022-07-23T00:22:54;75797.34;;;-144.09;74.39
8890;BME280;4481;43.406;24.454;2022-07-23T00:25:22;75801.50;;;-144.09;74.63
8890;BME280;4481;43.406;24.454;2022-07-23T00:27:48;75797.34;;;-144.09;74.41
8890;BME280;4481;43.406;24.454;2022-07-23T00:30:14;75799.41;;;-144.09;74.30
8890;BME280;4481;43.406;24.454;2022-07-23T00:32:48;75811.97;;;-144.09;74.62
8890;BME280;4481;43.406;24.454;2022-07-23T00:35:15;75830.75;;;-144.09;74.86
8890;BME280;4481;43.406;24.454;2022-07-23T00:37:41;75811.97;;;-144.09;74.77
8890;BME280;4481;43.406;24.454;2022-07-23T00:40:09;75811.97;;;-144.09;74.92
8890;BME280;4481;43.406;24.454;2022-07-23T00:42:36;75809.88;;;-144.09;74.86
8890;BME280;4481;43.406;24.454;2022-07-23T00:45:02;75814.03;;;-144.09;74.79
8890;BME280;4481;43.406;24.454;2022-07-23T00:47:28;75814.03;;;-144.09;74.77
8890;BME280;4481;43.406;24.454;2022-07-23T00:49:55;75828.66;;;-144.09;75.08
8890;BME280;4481;43.406;24.454;2022-07-23T00:52:22;75828.66;;;-144.09;75.01
8890;BME280;4481;43.406;24.454;2022-07-23T00:54:48;75828.66;;;-144.09;74.76
8890;BME280;4481;43.406;24.454;2022-07-23T00:57:15;75826.56;;;-144.09;74.62
8890;BME280;4481;43.406;24.454;2022-07-23T00:59:41;75816.13;;;-144.09;74.60
8890;BME280;4481;43.406;24.454;2022-07-23T01:02:08;75828.66;;;-144.09;74.55
8890;BME280;4481;43.406;24.454;2022-07-23T01:04:34;75837.03;;;-144.09;74.74
8890;BME280;4481;43.406;24.454;2022-07-23T01:07:01;75834.94;;;-144.09;74.91
8890;BME280;4481;43.406;24.454;2022-07-23T01:09:27;75828.66;;;-144.09;74.82
8890;BME280;4481;43.406;24.454;2022-07-23T01:11:54;75828.66;;;-144.09;74.69
8890;BME280;4481;43.406;24.454;2022-07-23T01:14:21;75841.19;;;-144.09;74.76
8890;BME280;4481;43.406;24.454;2022-07-23T01:16:48;75845.38;;;-144.09;75.14
8890;BME280;4481;43.406;24.454;2022-07-23T01:19:17;75841.19;;;-144.09;75.36
8890;BME280;4481;43.406;24.454;2022-07-23T01:21:46;75845.38;;;-144.09;75.46
8890;BME280;4481;43.406;24.454;2022-07-23T01:24:13;75839.13;;;-144.09;75.49
8890;BME280;4481;43.406;24.454;2022-07-23T01:26:42;75847.47;;;-144.09;75.67
8890;BME280;4481;43.406;24.454;2022-07-23T01:29:09;75849.56;;;-144.09;75.63
8890;BME280;4481;43.406;24.454;2022-07-23T01:31:36;75876.72;;;-144.09;76.17
8890;BME280;4481;43.406;24.454;2022-07-23T01:34:02;75887.16;;;-144.09;76.58
8890;BME280;4481;43.406;24.454;2022-07-23T01:36:29;75889.25;;;-144.09;77.21
8890;BME280;4481;43.406;24.454;2022-07-23T01:38:55;75910.16;;;-144.09;77.38
8890;BME280;4481;43.406;24.454;2022-07-23T01:41:22;75939.38;;;-144.09;77.88
8890;BME280;4481;43.406;24.454;2022-07-23T01:43:48;75920.59;;;-144.09;78.06
8890;BME280;4481;43.406;24.454;2022-07-23T01:46:15;75905.97;;;-144.09;77.77
8890;BME280;4481;43.406;24.454;2022-07-23T01:48:41;75924.78;;;-144.09;78.02
8890;BME280;4481;43.406;24.454;2022-07-23T01:51:07;75943.56;;;-144.09;78.49
8890;BME280;4481;43.406;24.454;2022-07-23T01:53:33;75962.38;;;-144.09;79.32
8890;BME280;4481;43.406;24.454;2022-07-23T01:56:00;75993.72;;;-144.09;80.51
8890;BME280;4481;43.406;24.454;2022-07-23T01:58:27;76020.88;;;-144.09;81.03
8890;BME280;4481;43.406;24.454;2022-07-23T02:00:54;75991.63;;;-144.09;80.95
8890;BME280;4481;43.406;24.454;2022-07-23T02:03:21;75962.38;;;-144.09;80.53
8890;BME280;4481;43.406;24.454;2022-07-23T02:05:48;75949.84;;;-144.09;79.91
8890;BME280;4481;43.406;24.454;2022-07-23T02:08:14;75945.66;;;-144.09;79.59
8890;BME280;4481;43.406;24.454;2022-07-23T02:10:40;75949.84;;;-144.09;79.12
8890;BME280;4481;43.406;24.454;2022-07-23T02:13:07;75964.47;;;-144.09;79.18
8890;BME280;4481;43.406;24.454;2022-07-23T02:15:34;75985.34;;;-144.09;79.57
8890;BME280;4481;43.406;24.454;2022-07-23T02:18:00;75968.63;;;-144.09;79.37
8890;BME280;4481;43.406;24.454;2022-07-23T02:20:26;75960.28;;;-144.09;78.76
8890;BME280;4481;43.406;24.454;2022-07-23T02:22:52;75962.38;;;-144.09;78.72
8890;BME280;4481;43.406;24.454;2022-07-23T02:25:19;75962.38;;;-144.09;78.63
8890;BME280;4481;43.406;24.454;2022-07-23T02:27:45;75958.19;;;-144.09;77.91
8890;BME280;4481;43.406;24.454;2022-07-23T02:30:11;75972.81;;;-144.09;78.38
8890;BME280;4481;43.406;24.454;2022-07-23T02:32:38;75987.44;;;-144.09;78.67
8890;BME280;4481;43.406;24.454;2022-07-23T02:35:05;75997.88;;;-144.09;79.09
8890;BME280;4481;43.406;24.454;2022-07-23T02:37:32;75987.44;;;-144.09;79.05
8890;BME280;4481;43.406;24.454;2022-07-23T02:39:58;76004.16;;;-144.09;79.04
8890;BME280;4481;43.406;24.454;2022-07-23T02:42:24;76027.13;;;-144.09;79.67
8890;BME280;4481;43.406;24.454;2022-07-23T02:44:51;76043.84;;;-144.09;79.92
8890;BME280;4481;43.406;24.454;2022-07-23T02:47:17;76027.13;;;-144.09;79.25
8890;BME280;4481;43.406;24.454;2022-07-23T02:49:44;76041.75;;;-144.09;80.00
8890;BME280;4481;43.406;24.454;2022-07-23T02:52:10;76050.13;;;-144.09;79.88
8890;BME280;4481;43.406;24.454;2022-07-23T02:54:37;76056.38;;;-144.09;80.14
8890;BME280;4481;43.406;24.454;2022-07-23T02:57:03;76071.00;;;-144.09;80.43
8890;BME280;4481;43.406;24.454;2022-07-23T02:59:29;76058.47;;;-144.09;80.40
8890;BME280;4481;43.406;24.454;2022-07-23T03:01:56;76045.94;;;-144.09;80.32
8890;BME280;4481;43.406;24.454;2022-07-23T03:04:22;76050.13;;;-144.09;80.13
8890;BME280;4481;43.406;24.454;2022-07-23T03:06:49;76064.75;;;-144.09;80.80
8890;BME280;4481;43.406;24.454;2022-07-23T03:09:15;76085.63;;;-144.09;80.71
8890;BME280;4481;43.406;24.454;2022-07-23T03:11:41;76085.63;;;-144.09;80.23
8890;BME280;4481;43.406;24.454;2022-07-23T03:14:07;76075.19;;;-144.09;80.03
8890;BME280;4481;43.406;24.454;2022-07-23T03:16:33;76087.72;;;-144.09;80.37
8890;BME280;4481;43.406;24.454;2022-07-23T03:19:00;76091.91;;;-144.09;80.76
8890;BME280;4481;43.406;24.454;2022-07-23T03:21:26;76094.00;;;-144.09;81.24
8890;BME280;4481;43.406;24.454;2022-07-23T03:23:53;76087.72;;;-144.09;80.84
8890;BME280;4481;43.406;24.454;2022-07-23T03:26:19;76075.19;;;-144.09;80.36
8890;BME280;4481;43.406;24.454;2022-07-23T03:28:45;76062.66;;;-144.09;79.98
8890;BME280;4481;43.406;24.454;2022-07-23T03:31:11;76054.31;;;-144.09;79.65
8890;BME280;4481;43.406;24.454;2022-07-23T03:33:37;76037.59;;;-144.09;79.31
8890;BME280;4481;43.406;24.454;2022-07-23T03:36:04;76043.84;;;-144.09;79.32
8890;BME280;4481;43.406;24.454;2022-07-23T03:38:30;76058.47;;;-144.09;79.56
8890;BME280;4481;43.406;24.454;2022-07-23T03:40:57;76064.75;;;-144.09;79.71
8890;BME280;4481;43.406;24.454;2022-07-23T03:43:23;76089.81;;;-144.09;80.38
8890;BME280;4481;43.406;24.454;2022-07-23T03:45:51;76087.72;;;-144.09;80.27
8890;BME280;4481;43.406;24.454;2022-07-23T03:48:17;76079.38;;;-144.09;80.55
8890;BME280;4481;43.406;24.454;2022-07-23T03:50:43;76075.19;;;-144.09;80.34
8890;BME280;4481;43.406;24.454;2022-07-23T03:53:09;76087.72;;;-144.09;80.54
8890;BME280;4481;43.406;24.454;2022-07-23T03:55:35;76091.91;;;-144.09;80.57
8890;BME280;4481;43.406;24.454;2022-07-23T03:58:02;76106.53;;;-144.09;80.98
8890;BME280;4481;43.406;24.454;2022-07-23T04:00:29;76094.00;;;-144.09;81.01
8890;BME280;4481;43.406;24.454;2022-07-23T04:02:55;76081.47;;;-144.09;80.76
8890;BME280;4481;43.406;24.454;2022-07-23T04:05:21;76064.75;;;-144.09;80.28
8890;BME280;4481;43.406;24.454;2022-07-23T04:07:47;76068.94;;;-144.09;80.43
8890;BME280;4481;43.406;24.454;2022-07-23T04:10:14;76071.00;;;-144.09;80.38
8890;BME280;4481;43.406;24.454;2022-07-23T04:12:40;76064.75;;;-144.09;80.22
8890;BME280;4481;43.406;24.454;2022-07-23T04:15:08;76068.94;;;-144.09;80.59
8890;BME280;4481;43.406;24.454;2022-07-23T04:17:34;76064.75;;;-144.09;80.95
8890;BME280;4481;43.406;24.454;2022-07-23T04:20:01;76056.38;;;-144.09;80.78
8890;BME280;4481;43.406;24.454;2022-07-23T04:22:27;76037.59;;;-144.09;80.36
8890;BME280;4481;43.406;24.454;2022-07-23T04:24:53;76010.44;;;-144.09;79.41
8890;BME280;4481;43.406;24.454;2022-07-23T04:27:19;76004.16;;;-144.09;79.72
8890;BME280;4481;43.406;24.454;2022-07-23T04:29:45;75981.19;;;-144.09;79.08
8890;BME280;4481;43.406;24.454;2022-07-23T04:32:12;75966.56;;;-144.09;78.44
8890;BME280;4481;43.406;24.454;2022-07-23T04:34:38;75947.75;;;-144.09;78.03
8890;BME280;4481;43.406;24.454;2022-07-23T04:37:04;75882.97;;;-144.09;77.00
8890;BME280;4481;43.406;24.454;2022-07-23T04:39:31;75828.66;;;-144.09;76.02
8890;BME280;4481;43.406;24.454;2022-07-23T04:41:57;75795.25;;;-144.09;74.36
8890;BME280;4481;43.406;24.454;2022-07-23T04:44:23;75778.53;;;-144.09;73.74
8890;BME280;4481;43.406;24.454;2022-07-23T04:46:49;75772.25;;;-144.09;73.80
8890;BME280;4481;43.406;24.454;2022-07-23T04:49:16;75745.09;;;-144.09;73.59
8890;BME280;4481;43.406;24.454;2022-07-23T04:51:42;75705.41;;;-144.09;72.49
8890;BME280;4481;43.406;24.454;2022-07-23T04:54:08;75638.56;;;-144.09;70.79
8890;BME280;4481;43.406;24.454;2022-07-23T04:56:34;75594.69;;;-144.09;69.38
8890;BME280;4481;43.406;24.454;2022-07-23T04:59:01;75552.91;;;-144.09;67.64
8890;BME280;4481;43.406;24.454;2022-07-23T05:01:27;75532.03;;;-144.09;67.41
8890;BME280;4481;43.406;24.454;2022-07-23T05:03:53;75509.03;;;-144.09;66.42
8890;BME280;4481;43.406;24.454;2022-07-23T05:06:20;75475.63;;;-144.09;65.52
8890;BME280;4481;43.406;24.454;2022-07-23T05:08:46;75444.28;;;-144.09;64.17
8890;BME280;4481;43.406;24.454;2022-07-23T05:11:12;75419.22;;;-144.09;63.69
8890;BME280;4481;43.406;24.454;2022-07-23T05:13:38;75402.50;;;-144.09;62.39
8890;BME280;4481;43.406;24.454;2022-07-23T05:16:05;75383.72;;;-144.09;62.51
8890;BME280;4481;43.406;24.454;2022-07-23T05:18:31;75364.91;;;-144.09;60.88
8890;BME280;4481;43.406;24.454;2022-07-23T05:20:57;75339.84;;;-144.09;60.23
8890;BME280;4481;43.406;24.454;2022-07-23T05:23:24;75321.06;;;-144.09;58.59
8890;BME280;4481;43.406;24.454;2022-07-23T05:25:50;75285.53;;;-144.09;58.07
8890;BME280;4481;43.406;24.454;2022-07-23T05:28:16;75258.38;;;-144.09;56.50
8890;BME280;4481;43.406;24.454;2022-07-23T05:30:43;75222.88;;;-144.09;55.24
8890;BME280;4481;43.406;24.454;2022-07-23T05:33:09;75189.47;;;-144.09;54.01
8890;BME280;4481;43.406;24.454;2022-07-23T05:35:35;75145.59;;;-144.09;53.73
8890;BME280;4481;43.406;24.454;2022-07-23T05:38:01;75143.50;;;-144.09;53.42
8890;BME280;4481;43.406;24.454;2022-07-23T05:40:28;75118.44;;;-144.09;51.96
8890;BME280;4481;43.406;24.454;2022-07-23T05:42:55;75072.50;;;-144.09;51.37
8890;BME280;4481;43.406;24.454;2022-07-23T05:45:21;75024.44;;;-144.09;50.04
8890;BME280;4481;43.406;24.454;2022-07-23T05:47:48;74997.31;;;-144.09;48.69
8890;BME280;4481;43.406;24.454;2022-07-23T05:50:15;74963.88;;;-144.09;48.40
8890;BME280;4481;43.406;24.454;2022-07-23T05:52:42;74934.66;;;-144.09;47.67
8890;BME280;4481;43.406;24.454;2022-07-23T05:55:10;74934.66;;;-144.09;46.57
8890;BME280;4481;43.406;24.454;2022-07-23T05:57:37;74920.03;;;-144.09;46.38
8890;BME280;4481;43.406;24.454;2022-07-23T06:00:04;74892.88;;;-144.09;45.51
8890;BME280;4481;43.406;24.454;2022-07-23T06:02:31;74882.44;;;-144.09;45.20
8890;BME280;4481;43.406;24.454;2022-07-23T06:04:57;74838.56;;;-144.09;44.73
8890;BME280;4481;43.406;24.454;2022-07-23T06:07:23;74800.97;;;-144.09;44.03
8890;BME280;4481;43.406;24.454;2022-07-23T06:09:50;74796.81;;;-144.09;44.08
8890;BME280;4481;43.406;24.454;2022-07-23T06:12:16;74773.81;;;-144.09;44.05
8890;BME280;4481;43.406;24.454;2022-07-23T06:14:43;74740.41;;;-144.09;42.97
8890;BME280;4481;43.406;24.454;2022-07-23T06:17:10;74717.44;;;-144.09;42.15
8890;BME280;4481;43.406;24.454;2022-07-23T06:19:36;74669.41;;;-144.09;41.59
8890;BME280;4481;43.406;24.454;2022-07-23T06:22:02;74646.44;;;-144.09;41.66
8890;BME280;4481;43.406;24.454;2022-07-23T06:24:28;74613.00;;;-144.09;41.08
8890;BME280;4481;43.406;24.454;2022-07-23T06:26:55;74615.09;;;-144.09;40.92
8890;BME280;4481;43.406;24.454;2022-07-23T06:29:21;74571.25;;;-144.09;40.25
8890;BME280;4481;43.406;24.454;2022-07-23T06:31:48;74562.91;;;-144.09;39.92
8890;BME280;4481;43.406;24.454;2022-07-23T06:34:14;74525.31;;;-144.09;39.74
8890;BME280;4481;43.406;24.454;2022-07-23T06:36:40;74512.78;;;-144.09;39.83
8890;BME280;4481;43.406;24.454;2022-07-23T06:39:06;74487.72;;;-144.09;38.70
8890;BME280;4481;43.406;24.454;2022-07-23T06:41:33;74450.13;;;-144.09;38.22
8890;BME280;4481;43.406;24.454;2022-07-23T06:43:59;74427.16;;;-144.09;37.28
8890;BME280;4481;43.406;24.454;2022-07-23T06:46:25;74410.44;;;-144.09;37.00
8890;BME280;4481;43.406;24.454;2022-07-23T06:48:52;74377.03;;;-144.09;36.87
8890;BME280;4481;43.406;24.454;2022-07-23T06:51:18;74351.97;;;-144.09;36.44
8890;BME280;4481;43.406;24.454;2022-07-23T06:53:44;74347.81;;;-144.09;36.53
8890;BME280;4481;43.406;24.454;2022-07-23T06:56:11;74314.38;;;-144.09;36.67
8890;BME280;4481;43.406;24.454;2022-07-23T06:58:37;74312.31;;;-144.09;36.74
8890;BME280;4481;43.406;24.454;2022-07-23T07:01:03;74301.88;;;-144.09;36.11
8890;BME280;4481;43.406;24.454;2022-07-23T07:03:29;74301.88;;;-144.09;36.50
8890;BME280;4481;43.406;24.454;2022-07-23T07:05:56;74310.22;;;-144.09;37.09
8890;BME280;4481;43.406;24.454;2022-07-23T07:08:23;74280.97;;;-144.09;35.70
8890;BME280;4481;43.406;24.454;2022-07-23T07:10:49;74266.38;;;-144.09;34.98
8890;BME280;4481;43.406;24.454;2022-07-23T07:13:16;74237.13;;;-144.09;35.51
8890;BME280;4481;43.406;24.454;2022-07-23T07:15:42;74239.22;;;-144.09;35.63
8890;BME280;4481;43.406;24.454;2022-07-23T07:18:08;74203.72;;;-144.09;34.07
8890;BME280;4481;43.406;24.454;2022-07-23T07:20:34;74182.84;;;-144.09;33.98
8890;BME280;4481;43.406;24.454;2022-07-23T07:23:01;74161.97;;;-144.09;32.14
8890;BME280;4481;43.406;24.454;2022-07-23T07:25:27;74145.25;;;-144.09;32.08
8890;BME280;4481;43.406;24.454;2022-07-23T07:27:54;74124.38;;;-144.09;31.92
8890;BME280;4481;43.406;24.454;2022-07-23T07:30:20;74120.19;;;-144.09;30.35
8890;BME280;4481;43.406;24.454;2022-07-23T07:32:46;74136.91;;;-144.09;29.90
8890;BME280;4481;43.406;24.454;2022-07-23T07:35:13;74134.81;;;-144.09;28.88
8890;BME280;4481;43.406;24.454;2022-07-23T07:37:39;74132.72;;;-144.09;28.85
8890;BME280;4481;43.406;24.454;2022-07-23T07:40:07;74113.94;;;-144.09;29.54
8890;BME280;4481;43.406;24.454;2022-07-23T07:42:33;74109.75;;;-144.09;29.74
8890;BME280;4481;43.406;24.454;2022-07-23T07:44:59;74090.97;;;-144.09;30.29
8890;BME280;4481;43.406;24.454;2022-07-23T07:47:26;74086.78;;;-144.09;30.17
8890;BME280;4481;43.406;24.454;2022-07-23T07:49:52;74072.16;;;-144.09;28.68
8890;BME280;4481;43.406;24.454;2022-07-23T07:52:18;74049.19;;;-144.09;29.50
8890;BME280;4481;43.406;24.454;2022-07-23T07:54:44;74032.50;;;-144.09;29.11
8890;BME280;4481;43.406;24.454;2022-07-23T07:57:11;74032.50;;;-144.09;28.73
8890;BME280;4481;43.406;24.454;2022-07-23T07:59:37;74019.97;;;-144.09;28.64
8890;BME280;4481;43.406;24.454;2022-07-23T08:02:03;74107.66;;;-144.09;29.10
8890;BME280;4481;43.406;24.454;2022-07-23T08:04:30;74093.06;;;-144.09;28.64
8890;BME280;4481;43.406;24.454;2022-07-23T08:06:56;74116.03;;;-144.09;29.24
8890;BME280;4481;43.406;24.454;2022-07-23T08:09:22;74086.78;;;-144.09;29.60
8890;BME280;4481;43.406;24.454;2022-07-23T08:11:48;74059.66;;;-144.09;29.17
8890;BME280;4481;43.406;24.454;2022-07-23T08:14:17;74045.03;;;-144.09;29.37
8890;BME280;4481;43.406;24.454;2022-07-23T08:16:44;74022.06;;;-144.09;29.29
8890;BME280;4481;43.406;24.454;2022-07-23T08:19:10;74005.34;;;-144.09;28.92
8890;BME280;4481;43.406;24.454;2022-07-23T08:21:36;74061.72;;;-144.09;28.91
8890;BME280;4481;43.406;24.454;2022-07-23T08:24:02;74130.63;;;-144.09;29.93
8890;BME280;4481;43.406;24.454;2022-07-23T08:26:29;74105.59;;;-144.09;29.46
8890;BME280;4481;43.406;24.454;2022-07-23T08:28:55;74128.56;;;-144.09;28.96
8890;BME280;4481;43.406;24.454;2022-07-23T08:31:22;74149.44;;;-144.09;29.09
8890;BME280;4481;43.406;24.454;2022-07-23T08:33:48;74128.56;;;-144.09;28.56
8890;BME280;4481;43.406;24.454;2022-07-23T08:36:14;74116.03;;;-144.09;28.12
8890;BME280;4481;43.406;24.454;2022-07-23T08:38:41;74139.00;;;-144.09;28.00
8890;BME280;4481;43.406;24.454;2022-07-23T08:41:09;74132.72;;;-144.09;29.01
8890;BME280;4481;43.406;24.454;2022-07-23T08:43:35;74090.97;;;-144.09;28.27
8890;BME280;4481;43.406;24.454;2022-07-23T08:46:02;74068.00;;;-144.09;28.27
8890;BME280;4481;43.406;24.454;2022-07-23T08:48:31;74068.00;;;-144.09;27.95
8890;BME280;4481;43.406;24.454;2022-07-23T08:50:59;74070.09;;;-144.09;28.02
8890;BME280;4481;43.406;24.454;2022-07-23T08:53:26;74045.03;;;-144.09;27.63
8890;BME280;4481;43.406;24.454;2022-07-23T08:55:55;74028.31;;;-144.09;27.91
8890;BME280;4481;43.406;24.454;2022-07-23T08:58:22;74007.44;;;-144.09;27.78
8890;BME280;4481;43.406;24.454;2022-07-23T09:00:48;74005.34;;;-144.09;28.45
8890;BME280;4481;43.406;24.454;2022-07-23T09:03:16;74001.19;;;-144.09;28.17
8890;BME280;4481;43.406;24.454;2022-07-23T09:05:43;73976.13;;;-144.09;28.05
8890;BME280;4481;43.406;24.454;2022-07-23T09:08:12;73957.34;;;-144.09;26.98
8890;BME280;4481;43.406;24.454;2022-07-23T09:10:47;73990.75;;;-144.09;26.71
8890;BME280;4481;43.406;24.454;2022-07-23T09:13:25;73990.75;;;-144.09;28.18
8890;BME280;4481;43.406;24.454;2022-07-23T09:15:53;73988.66;;;-144.09;25.74
8890;BME280;4481;43.406;24.454;2022-07-23T09:18:20;73976.13;;;-144.09;25.98
8890;BME280;4481;43.406;24.454;2022-07-23T09:21:05;73980.28;;;-144.09;25.13
8890;BME280;4481;43.406;24.454;2022-07-23T09:23:37;73959.41;;;-144.09;25.15
8890;BME280;4481;43.406;24.454;2022-07-23T09:26:17;73940.63;;;-144.09;24.45
8890;BME280;4481;43.406;24.454;2022-07-23T09:28:50;73955.25;;;-144.09;23.96
8890;BME280;4481;43.406;24.454;2022-07-23T09:31:17;74015.78;;;-144.09;24.21
8890;BME280;4481;43.406;24.454;2022-07-23T09:33:43;73986.56;;;-144.09;24.47
8890;BME280;4481;43.406;24.454;2022-07-23T09:36:10;73969.84;;;-144.09;24.89
8890;BME280;4481;43.406;24.454;2022-07-23T09:38:47;74003.25;;;-144.09;24.56
8890;BME280;4481;43.406;24.454;2022-07-23T09:41:14;73965.69;;;-144.09;25.25
8890;BME280;4481;43.406;24.454;2022-07-23T09:43:40;73967.78;;;-144.09;24.86
8890;BME280;4481;43.406;24.454;2022-07-23T09:46:20;73946.88;;;-144.09;24.87
8890;BME280;4481;43.406;24.454;2022-07-23T09:48:47;73919.75;;;-144.09;25.52
8890;BME280;4481;43.406;24.454;2022-07-23T09:51:14;73917.66;;;-144.09;24.76
8890;BME280;4481;43.406;24.454;2022-07-23T09:53:42;73911.41;;;-144.09;24.67
8890;BME280;4481;43.406;24.454;2022-07-23T09:56:09;73903.03;;;-144.09;25.18
8890;BME280;4481;43.406;24.454;2022-07-23T09:58:39;73903.03;;;-144.09;24.78
8890;BME280;4481;43.406;24.454;2022-07-23T10:01:15;73965.69;;;-144.09;25.17
8890;BME280;4481;43.406;24.454;2022-07-23T10:03:41;73999.09;;;-144.09;25.10
8890;BME280;4481;43.406;24.454;2022-07-23T10:06:09;74013.72;;;-144.09;25.13
8890;BME280;4481;43.406;24.454;2022-07-23T10:08:38;74001.19;;;-144.09;25.01
8890;BME280;4481;43.406;24.454;2022-07-23T10:11:07;74001.19;;;-144.09;24.32
8890;BME280;4481;43.406;24.454;2022-07-23T10:13:34;73997.00;;;-144.09;24.89
8890;BME280;4481;43.406;24.454;2022-07-23T10:16:18;74001.19;;;-144.09;25.62
8890;BME280;4481;43.406;24.454;2022-07-23T10:18:45;73980.28;;;-144.09;25.03
8890;BME280;4481;43.406;24.454;2022-07-23T10:21:12;73961.50;;;-144.09;25.03
8890;BME280;4481;43.406;24.454;2022-07-23T10:23:47;73953.16;;;-144.09;25.32
8890;BME280;4481;43.406;24.454;2022-07-23T10:26:22;73936.44;;;-144.09;25.24
8890;BME280;4481;43.406;24.454;2022-07-23T10:29:07;73938.53;;;-144.09;24.77
8890;BME280;4481;43.406;24.454;2022-07-23T10:31:48;73921.84;;;-144.09;24.87
8890;BME280;4481;43.406;24.454;2022-07-23T10:34:21;73917.66;;;-144.09;24.73
8890;BME280;4481;43.406;24.454;2022-07-23T10:36:50;73917.66;;;-144.09;24.75
8890;BME280;4481;43.406;24.454;2022-07-23T10:39:22;73903.03;;;-144.09;24.61
8890;BME280;4481;43.406;24.454;2022-07-23T10:41:50;73890.50;;;-144.09;25.09
8890;BME280;4481;43.406;24.454;2022-07-23T10:44:20;73882.16;;;-144.09;25.01
8890;BME280;4481;43.406;24.454;2022-07-23T10:46:57;73873.81;;;-144.09;24.77
8890;BME280;4481;43.406;24.454;2022-07-23T10:49:33;73859.19;;;-144.09;24.17
8890;BME280;4481;43.406;24.454;2022-07-23T10:52:21;73850.84;;;-144.09;24.82
8890;BME280;4481;43.406;24.454;2022-07-23T10:54:50;73863.38;;;-144.09;23.57
8890;BME280;4481;43.406;24.454;2022-07-23T10:57:17;73857.09;;;-144.09;22.81
8890;BME280;4481;43.406;24.454;2022-07-23T11:00:13;73873.81;;;-144.09;23.12
8890;BME280;4481;43.406;24.454;2022-07-23T11:02:40;73857.09;;;-144.09;22.94
8890;BME280;4481;43.406;24.454;2022-07-23T11:05:08;73844.59;;;-144.09;22.91
8890;BME280;4481;43.406;24.454;2022-07-23T11:07:36;73836.22;;;-144.09;23.83
8890;BME280;4481;43.406;24.454;2022-07-23T11:10:04;73823.69;;;-144.09;23.29
8890;BME280;4481;43.406;24.454;2022-07-23T11:12:36;73817.44;;;-144.09;22.86
8890;BME280;4481;43.406;24.454;2022-07-23T11:15:05;73825.78;;;-144.09;22.36
8890;BME280;4481;43.406;24.454;2022-07-23T11:17:33;73823.69;;;-144.09;22.51
8890;BME280;4481;43.406;24.454;2022-07-23T11:20:20;73832.06;;;-144.09;22.72
8890;BME280;4481;43.406;24.454;2022-07-23T11:22:48;73823.69;;;-144.09;22.84
8890;BME280;4481;43.406;24.454;2022-07-23T11:25:31;73823.69;;;-144.09;23.43
8890;BME280;4481;43.406;24.454;2022-07-23T11:28:09;73832.06;;;-144.09;22.73
8890;BME280;4481;43.406;24.454;2022-07-23T11:30:41;73852.94;;;-144.09;23.31
8890;BME280;4481;43.406;24.454;2022-07-23T11:33:17;73846.66;;;-144.09;23.28
8890;BME280;4481;43.406;24.454;2022-07-23T11:35:45;73857.09;;;-144.09;23.17
8890;BME280;4481;43.406;24.454;2022-07-23T11:38:14;73892.59;;;-144.09;23.47
8890;BME280;4481;43.406;24.454;2022-07-23T11:40:41;73873.81;;;-144.09;23.40
8890;BME280;4481;43.406;24.454;2022-07-23T11:43:10;73852.94;;;-144.09;23.56
8890;BME280;4481;43.406;24.454;2022-07-23T11:45:38;73861.28;;;-144.09;23.55
8890;BME280;4481;43.406;24.454;2022-07-23T11:48:07;73848.75;;;-144.09;24.06
8890;BME280;4481;43.406;24.454;2022-07-23T11:50:33;73844.59;;;-144.09;23.31
8890;BME280;4481;43.406;24.454;2022-07-23T11:53:00;73829.97;;;-144.09;23.72
8890;BME280;4481;43.406;24.454;2022-07-23T11:55:26;73811.19;;;-144.09;23.96
8890;BME280;4481;43.406;24.454;2022-07-23T11:57:55;73802.81;;;-144.09;23.78
8890;BME280;4481;43.406;24.454;2022-07-23T12:00:22;73784.03;;;-144.09;23.76
8890;BME280;4481;43.406;24.454;2022-07-23T12:02:51;73773.59;;;-144.09;23.44
8890;BME280;4481;43.406;24.454;2022-07-23T12:05:20;73765.25;;;-144.09;22.67
8890;BME280;4481;43.406;24.454;2022-07-23T12:07:47;73754.81;;;-144.09;23.21
8890;BME280;4481;43.406;24.454;2022-07-23T12:10:17;73742.28;;;-144.09;23.33
8890;BME280;4481;43.406;24.454;2022-07-23T12:12:46;73738.09;;;-144.09;22.67
8890;BME280;4481;43.406;24.454;2022-07-23T12:15:17;73731.84;;;-144.09;22.43
8890;BME280;4481;43.406;24.454;2022-07-23T12:17:46;73715.13;;;-144.09;23.17
8890;BME280;4481;43.406;24.454;2022-07-23T12:20:14;73723.47;;;-144.09;22.72
8890;BME280;4481;43.406;24.454;2022-07-23T12:22:41;73727.66;;;-144.09;22.88
8890;BME280;4481;43.406;24.454;2022-07-23T12:25:10;73715.13;;;-144.09;22.70
8890;BME280;4481;43.406;24.454;2022-07-23T12:27:37;73706.78;;;-144.09;23.04
8890;BME280;4481;43.406;24.454;2022-07-23T12:30:21;73725.56;;;-144.09;22.59
8890;BME280;4481;43.406;24.454;2022-07-23T12:32:51;73713.03;;;-144.09;22.96
8890;BME280;4481;43.406;24.454;2022-07-23T12:35:18;73717.22;;;-144.09;21.95
8890;BME280;4481;43.406;24.454;2022-07-23T12:37:46;73731.84;;;-144.09;21.73
8890;BME280;4481;43.406;24.454;2022-07-23T12:40:21;73748.53;;;-144.09;21.61
8890;BME280;4481;43.406;24.454;2022-07-23T12:42:49;73742.28;;;-144.09;22.03
8890;BME280;4481;43.406;24.454;2022-07-23T12:45:16;73742.28;;;-144.09;22.37
8890;BME280;4481;43.406;24.454;2022-07-23T12:47:54;73750.63;;;-144.09;22.16
8890;BME280;4481;43.406;24.454;2022-07-23T12:50:35;73756.88;;;-144.09;22.11
8890;BME280;4481;43.406;24.454;2022-07-23T12:53:07;73771.50;;;-144.09;22.20